sensor_id;sensor_type;location;lat;lon;timestamp;temperature;humidity
5136;DHT22;2586;48.710;9.202;2022-12-11T00:02:03;-2.90;1.00
5136;DHT22;2586;48.710;9.202;2022-12-11T00:04:30;-2.90;1.00
5136;DHT22;2586;48.710;9.202;2022-12-11T00:06:55;-2.90;1.00
5136;DHT22;2586;48.710;9.202;2022-12-11T00:09:21;-2.90;99.90
5136;DHT22;2586;48.710;9.202;2022-12-11T00:11:47;-3.00;52.20
5136;DHT22;2586;48.710;9.202;2022-12-11T00:14:13;-3.00;99.90
5136;DHT22;2586;48.710;9.202;2022-12-11T00:16:40;-3.00;99.90
5136;DHT22;2586;48.710;9.202;2022-12-11T00:19:06;-2.90;99.90
5136;DHT22;2586;48.710;9.202;2022-12-11T00:21:32;-3.00;99.90
5136;DHT22;2586;48.710;9.202;2022-12-11T00:23:58;-2.90;99.90
5136;DHT22;2586;48.710;9.202;2022-12-11T00:26:24;-3.00;1.00
5136;DHT22;2586;48.710;9.202;2022-12-11T00:28:55;-3.00;1.00
5136;DHT22;2586;48.710;9.202;2022-12-11T00:31:22;-3.10;1.00
5136;DHT22;2586;48.710;9.202;2022-12-11T00:33:48;-3.20;1.00
5136;DHT22;2586;48.710;9.202;2022-12-11T00:36:22;-3.10;99.90
5136;DHT22;2586;48.710;9.202;2022-12-11T00:38:48;-3.20;99.90
5136;DHT22;2586;48.710;9.202;2022-12-11T00:41:16;-3.10;99.90
5136;DHT22;2586;48.710;9.202;2022-12-11T00:43:43;-3.10;99.90
5136;DHT22;2586;48.710;9.202;2022-12-11T00:46:10;-3.10;99.90
5136;DHT22;2586;48.710;9.202;2022-12-11T00:48:35;-3.00;99.90
5136;DHT22;2586;48.710;9.202;2022-12-11T00:51:01;-3.00;99.90
5136;DHT22;2586;48.710;9.202;2022-12-11T00:53:27;-2.90;99.90
5136;DHT22;2586;48.710;9.202;2022-12-11T00:55:53;-2.90;99.90
5136;DHT22;2586;48.710;9.202;2022-12-11T00:58:19;-2.80;1.00
5136;DHT22;2586;48.710;9.202;2022-12-11T01:00:45;-2.80;1.00
5136;DHT22;2586;48.710;9.202;2022-12-11T01:03:13;-2.80;1.00
5136;DHT22;2586;48.710;9.202;2022-12-11T01:05:39;-2.80;1.00
5136;DHT22;2586;48.710;9.202;2022-12-11T01:08:06;-2.70;11.10
5136;DHT22;2586;48.710;9.202;2022-12-11T01:10:32;-2.60;1.00
5136;DHT22;2586;48.710;9.202;2022-12-11T01:13:04;-2.50;1.00
5136;DHT22;2586;48.710;9.202;2022-12-11T01:15:38;-2.50;1.00
5136;DHT22;2586;48.710;9.202;2022-12-11T01:18:04;-2.50;1.00
5136;DHT22;2586;48.710;9.202;2022-12-11T01:20:29;-2.50;1.00
5136;DHT22;2586;48.710;9.202;2022-12-11T01:22:57;-2.50;1.00
5136;DHT22;2586;48.710;9.202;2022-12-11T01:25:24;-2.40;1.00
5136;DHT22;2586;48.710;9.202;2022-12-11T01:27:51;-2.40;1.00
5136;DHT22;2586;48.710;9.202;2022-12-11T01:30:18;-2.30;1.00
5136;DHT22;2586;48.710;9.202;2022-12-11T01:32:44;-2.30;1.00
5136;DHT22;2586;48.710;9.202;2022-12-11T01:35:11;-2.20;29.60
5136;DHT22;2586;48.710;9.202;2022-12-11T01:37:37;-2.40;1.00
5136;DHT22;2586;48.710;9.202;2022-12-11T01:40:04;-2.40;99.90
5136;DHT22;2586;48.710;9.202;2022-12-11T01:42:30;-2.30;1.00
5136;DHT22;2586;48.710;9.202;2022-12-11T01:45:32;-2.30;1.00
5136;DHT22;2586;48.710;9.202;2022-12-11T01:48:10;-2.30;1.00
5136;DHT22;2586;48.710;9.202;2022-12-11T01:50:48;-2.30;1.00
5136;DHT22;2586;48.710;9.202;2022-12-11T01:53:39;-2.30;1.00
5136;DHT22;2586;48.710;9.202;2022-12-11T01:56:06;-2.20;1.00
5136;DHT22;2586;48.710;9.202;2022-12-11T01:58:37;-2.10;1.00
5136;DHT22;2586;48.710;9.202;2022-12-11T02:01:05;-2.20;99.90
5136;DHT22;2586;48.710;9.202;2022-12-11T02:03:30;-2.20;99.90
5136;DHT22;2586;48.710;9.202;2022-12-11T02:06:03;-2.20;99.90
5136;DHT22;2586;48.710;9.202;2022-12-11T02:08:28;-2.20;99.90
5136;DHT22;2586;48.710;9.202;2022-12-11T02:13:51;-2.10;99.90
5136;DHT22;2586;48.710;9.202;2022-12-11T02:16:35;-2.10;1.00
5136;DHT22;2586;48.710;9.202;2022-12-11T02:19:20;-2.20;1.00
5136;DHT22;2586;48.710;9.202;2022-12-11T02:21:54;-2.10;70.00
5136;DHT22;2586;48.710;9.202;2022-12-11T02:24:50;-2.10;1.00
5136;DHT22;2586;48.710;9.202;2022-12-11T02:27:39;-2.00;1.00
5136;DHT22;2586;48.710;9.202;2022-12-11T02:30:09;-2.00;1.00
5136;DHT22;2586;48.710;9.202;2022-12-11T02:32:45;-1.90;1.00
5136;DHT22;2586;48.710;9.202;2022-12-11T02:35:21;-1.90;1.00
5136;DHT22;2586;48.710;9.202;2022-12-11T02:37:55;-1.90;99.90
5136;DHT22;2586;48.710;9.202;2022-12-11T02:40:25;-1.80;99.90
5136;DHT22;2586;48.710;9.202;2022-12-11T02:42:53;-1.80;99.90
5136;DHT22;2586;48.710;9.202;2022-12-11T02:45:21;-1.90;1.00
5136;DHT22;2586;48.710;9.202;2022-12-11T02:47:48;-1.90;1.00
5136;DHT22;2586;48.710;9.202;2022-12-11T02:50:17;-1.90;99.90
5136;DHT22;2586;48.710;9.202;2022-12-11T02:52:45;-1.80;99.90
5136;DHT22;2586;48.710;9.202;2022-12-11T02:55:14;-1.80;99.90
5136;DHT22;2586;48.710;9.202;2022-12-11T02:58:01;-1.80;99.90
5136;DHT22;2586;48.710;9.202;2022-12-11T03:00:28;-1.80;99.90
5136;DHT22;2586;48.710;9.202;2022-12-11T03:02:54;-1.80;16.00
5136;DHT22;2586;48.710;9.202;2022-12-11T03:05:20;-1.80;99.90
5136;DHT22;2586;48.710;9.202;2022-12-11T03:07:46;-1.70;1.00
5136;DHT22;2586;48.710;9.202;2022-12-11T03:10:15;-1.80;99.90
5136;DHT22;2586;48.710;9.202;2022-12-11T03:12:45;-1.70;1.00
5136;DHT22;2586;48.710;9.202;2022-12-11T03:15:14;-1.70;1.00
5136;DHT22;2586;48.710;9.202;2022-12-11T03:17:53;-1.70;1.00
5136;DHT22;2586;48.710;9.202;2022-12-11T03:20:37;-1.60;1.00
5136;DHT22;2586;48.710;9.202;2022-12-11T03:28:26;-1.60;1.00
5136;DHT22;2586;48.710;9.202;2022-12-11T03:30:55;-1.60;1.00
5136;DHT22;2586;48.710;9.202;2022-12-11T03:33:25;-1.50;1.00
5136;DHT22;2586;48.710;9.202;2022-12-11T03:35:56;-1.60;1.00
5136;DHT22;2586;48.710;9.202;2022-12-11T03:38:43;-1.60;1.00
5136;DHT22;2586;48.710;9.202;2022-12-11T03:41:11;-1.60;1.00
5136;DHT22;2586;48.710;9.202;2022-12-11T03:43:39;-1.50;1.00
5136;DHT22;2586;48.710;9.202;2022-12-11T03:46:06;-1.60;1.00
5136;DHT22;2586;48.710;9.202;2022-12-11T03:48:34;-1.70;1.00
5136;DHT22;2586;48.710;9.202;2022-12-11T03:51:03;-1.70;1.00
5136;DHT22;2586;48.710;9.202;2022-12-11T03:53:30;-1.70;1.00
5136;DHT22;2586;48.710;9.202;2022-12-11T03:55:58;-1.70;99.90
5136;DHT22;2586;48.710;9.202;2022-12-11T03:58:25;-1.70;99.90
5136;DHT22;2586;48.710;9.202;2022-12-11T04:00:50;-1.70;99.90
5136;DHT22;2586;48.710;9.202;2022-12-11T04:03:16;-1.70;1.00
5136;DHT22;2586;48.710;9.202;2022-12-11T04:05:50;-1.70;1.00
5136;DHT22;2586;48.710;9.202;2022-12-11T04:08:17;-1.80;1.00
5136;DHT22;2586;48.710;9.202;2022-12-11T04:10:44;-1.80;1.00
5136;DHT22;2586;48.710;9.202;2022-12-11T04:13:10;-1.70;1.00
5136;DHT22;2586;48.710;9.202;2022-12-11T04:15:36;-1.80;1.00
5136;DHT22;2586;48.710;9.202;2022-12-11T04:18:02;-1.80;1.00
5136;DHT22;2586;48.710;9.202;2022-12-11T04:20:46;-1.80;1.00
5136;DHT22;2586;48.710;9.202;2022-12-11T04:23:30;-1.80;1.00
5136;DHT22;2586;48.710;9.202;2022-12-11T04:26:18;-1.80;1.00
5136;DHT22;2586;48.710;9.202;2022-12-11T04:28:48;-1.80;1.00
5136;DHT22;2586;48.710;9.202;2022-12-11T04:31:16;-1.90;99.90
5136;DHT22;2586;48.710;9.202;2022-12-11T04:33:42;-2.00;1.00
5136;DHT22;2586;48.710;9.202;2022-12-11T04:36:09;-2.10;1.00
5136;DHT22;2586;48.710;9.202;2022-12-11T04:38:35;-2.10;1.00
5136;DHT22;2586;48.710;9.202;2022-12-11T04:41:07;-2.20;1.00
5136;DHT22;2586;48.710;9.202;2022-12-11T04:43:33;-2.20;99.90
5136;DHT22;2586;48.710;9.202;2022-12-11T04:46:19;-2.30;99.90
5136;DHT22;2586;48.710;9.202;2022-12-11T04:48:46;-2.30;66.10
5136;DHT22;2586;48.710;9.202;2022-12-11T04:51:12;-2.30;9.10
5136;DHT22;2586;48.710;9.202;2022-12-11T04:53:37;-2.30;99.90
5136;DHT22;2586;48.710;9.202;2022-12-11T04:56:08;-2.30;1.00
5136;DHT22;2586;48.710;9.202;2022-12-11T04:58:34;-2.30;1.00
5136;DHT22;2586;48.710;9.202;2022-12-11T05:01:05;-2.30;99.90
5136;DHT22;2586;48.710;9.202;2022-12-11T05:03:31;-2.30;99.90
5136;DHT22;2586;48.710;9.202;2022-12-11T05:05:56;-2.30;99.90
5136;DHT22;2586;48.710;9.202;2022-12-11T05:08:22;-2.30;99.90
5136;DHT22;2586;48.710;9.202;2022-12-11T05:10:55;-2.30;1.00
5136;DHT22;2586;48.710;9.202;2022-12-11T05:13:21;-2.40;1.00
5136;DHT22;2586;48.710;9.202;2022-12-11T05:15:47;-2.40;99.90
5136;DHT22;2586;48.710;9.202;2022-12-11T05:18:13;-2.40;99.90
5136;DHT22;2586;48.710;9.202;2022-12-11T05:20:38;-2.40;1.00
5136;DHT22;2586;48.710;9.202;2022-12-11T05:23:04;-2.40;99.90
5136;DHT22;2586;48.710;9.202;2022-12-11T05:25:29;-2.40;1.00
5136;DHT22;2586;48.710;9.202;2022-12-11T05:27:55;-2.40;99.90
5136;DHT22;2586;48.710;9.202;2022-12-11T05:30:20;-2.30;99.90
5136;DHT22;2586;48.710;9.202;2022-12-11T05:32:46;-2.30;99.90
5136;DHT22;2586;48.710;9.202;2022-12-11T05:35:12;-2.20;1.00
5136;DHT22;2586;48.710;9.202;2022-12-11T05:37:37;-2.20;1.00
5136;DHT22;2586;48.710;9.202;2022-12-11T05:40:03;-2.20;1.00
5136;DHT22;2586;48.710;9.202;2022-12-11T05:42:31;-2.10;1.00
5136;DHT22;2586;48.710;9.202;2022-12-11T05:44:56;-2.20;1.00
5136;DHT22;2586;48.710;9.202;2022-12-11T05:47:22;-2.20;99.90
5136;DHT22;2586;48.710;9.202;2022-12-11T05:49:48;-2.30;99.90
5136;DHT22;2586;48.710;9.202;2022-12-11T05:52:13;-2.40;99.90
5136;DHT22;2586;48.710;9.202;2022-12-11T05:54:40;-2.40;99.90
5136;DHT22;2586;48.710;9.202;2022-12-11T05:57:06;-2.50;99.90
5136;DHT22;2586;48.710;9.202;2022-12-11T05:59:32;-2.50;99.90
5136;DHT22;2586;48.710;9.202;2022-12-11T06:01:57;-2.50;69.40
5136;DHT22;2586;48.710;9.202;2022-12-11T06:04:23;-2.50;17.10
5136;DHT22;2586;48.710;9.202;2022-12-11T06:06:48;-2.60;1.00
5136;DHT22;2586;48.710;9.202;2022-12-11T06:09:15;-2.60;1.00
5136;DHT22;2586;48.710;9.202;2022-12-11T06:11:41;-2.60;43.80
5136;DHT22;2586;48.710;9.202;2022-12-11T06:14:08;-2.70;90.50
5136;DHT22;2586;48.710;9.202;2022-12-11T06:16:34;-2.80;99.90
5136;DHT22;2586;48.710;9.202;2022-12-11T06:18:59;-2.90;1.00
5136;DHT22;2586;48.710;9.202;2022-12-11T06:21:28;-2.90;1.00
5136;DHT22;2586;48.710;9.202;2022-12-11T06:23:56;-2.90;1.00
5136;DHT22;2586;48.710;9.202;2022-12-11T06:26:22;-3.00;96.30
5136;DHT22;2586;48.710;9.202;2022-12-11T06:28:49;-3.00;99.90
5136;DHT22;2586;48.710;9.202;2022-12-11T06:31:15;-3.00;99.90
5136;DHT22;2586;48.710;9.202;2022-12-11T06:33:41;-3.10;99.90
5136;DHT22;2586;48.710;9.202;2022-12-11T06:36:11;-3.10;99.90
5136;DHT22;2586;48.710;9.202;2022-12-11T06:38:38;-3.10;99.90
5136;DHT22;2586;48.710;9.202;2022-12-11T06:41:05;-3.20;99.90
5136;DHT22;2586;48.710;9.202;2022-12-11T06:43:32;-3.10;1.00
5136;DHT22;2586;48.710;9.202;2022-12-11T06:45:58;-3.20;1.00
5136;DHT22;2586;48.710;9.202;2022-12-11T06:48:24;-3.30;99.90
5136;DHT22;2586;48.710;9.202;2022-12-11T06:50:49;-3.30;1.00
5136;DHT22;2586;48.710;9.202;2022-12-11T06:53:15;-3.30;1.00
5136;DHT22;2586;48.710;9.202;2022-12-11T06:55:41;-3.30;1.00
5136;DHT22;2586;48.710;9.202;2022-12-11T06:58:07;-3.30;1.00
5136;DHT22;2586;48.710;9.202;2022-12-11T07:00:37;-3.40;1.00
5136;DHT22;2586;48.710;9.202;2022-12-11T07:03:03;-3.40;1.00
5136;DHT22;2586;48.710;9.202;2022-12-11T07:05:30;-3.40;1.00
5136;DHT22;2586;48.710;9.202;2022-12-11T07:07:56;-3.50;1.00
5136;DHT22;2586;48.710;9.202;2022-12-11T07:10:22;-3.60;1.00
5136;DHT22;2586;48.710;9.202;2022-12-11T07:12:48;-3.50;1.00
5136;DHT22;2586;48.710;9.202;2022-12-11T07:15:13;-3.40;1.00
5136;DHT22;2586;48.710;9.202;2022-12-11T07:17:39;-3.30;50.80
5136;DHT22;2586;48.710;9.202;2022-12-11T07:20:05;-3.30;1.00
5136;DHT22;2586;48.710;9.202;2022-12-11T07:22:30;-3.20;1.00
5136;DHT22;2586;48.710;9.202;2022-12-11T07:24:56;-3.20;1.00
5136;DHT22;2586;48.710;9.202;2022-12-11T07:27:22;-3.20;1.00
5136;DHT22;2586;48.710;9.202;2022-12-11T07:29:49;-3.20;99.90
5136;DHT22;2586;48.710;9.202;2022-12-11T07:32:15;-3.20;99.90
5136;DHT22;2586;48.710;9.202;2022-12-11T07:34:40;-3.20;99.90
5136;DHT22;2586;48.710;9.202;2022-12-11T07:37:06;-3.20;98.60
5136;DHT22;2586;48.710;9.202;2022-12-11T07:39:31;-3.10;1.00
5136;DHT22;2586;48.710;9.202;2022-12-11T07:41:57;-2.90;1.00
5136;DHT22;2586;48.710;9.202;2022-12-11T07:44:22;-2.70;1.00
5136;DHT22;2586;48.710;9.202;2022-12-11T07:46:48;-2.50;1.00
5136;DHT22;2586;48.710;9.202;2022-12-11T07:49:14;-2.40;99.90
5136;DHT22;2586;48.710;9.202;2022-12-11T07:51:39;-2.50;99.90
5136;DHT22;2586;48.710;9.202;2022-12-11T07:54:10;-2.50;99.90
5136;DHT22;2586;48.710;9.202;2022-12-11T07:56:39;-2.50;99.90
5136;DHT22;2586;48.710;9.202;2022-12-11T07:59:05;-2.50;1.00
5136;DHT22;2586;48.710;9.202;2022-12-11T08:01:33;-2.50;1.00
5136;DHT22;2586;48.710;9.202;2022-12-11T08:04:07;-2.50;1.00
5136;DHT22;2586;48.710;9.202;2022-12-11T08:06:36;-2.30;1.00
5136;DHT22;2586;48.710;9.202;2022-12-11T08:09:05;-2.20;1.00
5136;DHT22;2586;48.710;9.202;2022-12-11T08:11:31;-2.10;99.90
5136;DHT22;2586;48.710;9.202;2022-12-11T08:13:57;-2.00;99.90
5136;DHT22;2586;48.710;9.202;2022-12-11T08:16:24;-1.80;1.00
5136;DHT22;2586;48.710;9.202;2022-12-11T08:18:50;-1.50;99.90
5136;DHT22;2586;48.710;9.202;2022-12-11T08:21:21;-1.30;1.00
5136;DHT22;2586;48.710;9.202;2022-12-11T08:23:47;-1.10;1.00
5136;DHT22;2586;48.710;9.202;2022-12-11T08:26:27;-1.20;99.90
5136;DHT22;2586;48.710;9.202;2022-12-11T08:28:54;-1.00;80.70
5136;DHT22;2586;48.710;9.202;2022-12-11T08:31:20;-0.80;99.90
5136;DHT22;2586;48.710;9.202;2022-12-11T08:33:46;-0.70;1.00
5136;DHT22;2586;48.710;9.202;2022-12-11T08:36:14;-0.70;99.90
5136;DHT22;2586;48.710;9.202;2022-12-11T08:38:40;-0.50;99.90
5136;DHT22;2586;48.710;9.202;2022-12-11T08:43:38;-0.10;99.90
5136;DHT22;2586;48.710;9.202;2022-12-11T08:46:03;0.10;1.00
5136;DHT22;2586;48.710;9.202;2022-12-11T08:48:29;0.00;1.00
5136;DHT22;2586;48.710;9.202;2022-12-11T08:51:01;-0.30;1.00
5136;DHT22;2586;48.710;9.202;2022-12-11T08:53:30;-0.30;92.60
5136;DHT22;2586;48.710;9.202;2022-12-11T08:56:00;-0.20;1.00
5136;DHT22;2586;48.710;9.202;2022-12-11T08:58:26;-0.30;28.10
5136;DHT22;2586;48.710;9.202;2022-12-11T09:00:52;-0.20;1.00
5136;DHT22;2586;48.710;9.202;2022-12-11T09:03:18;-0.10;1.00
5136;DHT22;2586;48.710;9.202;2022-12-11T09:05:44;-0.10;1.00
5136;DHT22;2586;48.710;9.202;2022-12-11T09:08:09;-0.20;99.90
5136;DHT22;2586;48.710;9.202;2022-12-11T09:10:35;-0.40;94.50
5136;DHT22;2586;48.710;9.202;2022-12-11T09:13:00;-0.60;40.00
5136;DHT22;2586;48.710;9.202;2022-12-11T09:15:26;-0.70;21.50
5136;DHT22;2586;48.710;9.202;2022-12-11T09:17:52;-0.80;99.90
5136;DHT22;2586;48.710;9.202;2022-12-11T09:20:17;-0.90;99.90
5136;DHT22;2586;48.710;9.202;2022-12-11T09:22:43;-1.00;99.90
5136;DHT22;2586;48.710;9.202;2022-12-11T09:25:08;-1.10;99.90
5136;DHT22;2586;48.710;9.202;2022-12-11T09:27:34;-1.00;1.00
5136;DHT22;2586;48.710;9.202;2022-12-11T09:30:00;-0.90;1.00
5136;DHT22;2586;48.710;9.202;2022-12-11T09:32:25;-0.90;1.00
5136;DHT22;2586;48.710;9.202;2022-12-11T09:34:51;-1.00;91.90
5136;DHT22;2586;48.710;9.202;2022-12-11T09:37:17;-1.10;99.90
5136;DHT22;2586;48.710;9.202;2022-12-11T09:39:42;-1.00;99.90
5136;DHT22;2586;48.710;9.202;2022-12-11T09:42:40;-1.10;99.90
5136;DHT22;2586;48.710;9.202;2022-12-11T09:45:13;-1.10;99.90
5136;DHT22;2586;48.710;9.202;2022-12-11T09:47:41;-1.00;1.00
5136;DHT22;2586;48.710;9.202;2022-12-11T09:55:18;-0.60;99.90
5136;DHT22;2586;48.710;9.202;2022-12-11T09:58:09;-0.50;1.00
5136;DHT22;2586;48.710;9.202;2022-12-11T10:00:42;-0.50;1.00
5136;DHT22;2586;48.710;9.202;2022-12-11T10:03:39;-0.40;1.00
5136;DHT22;2586;48.710;9.202;2022-12-11T10:06:20;-0.20;1.00
5136;DHT22;2586;48.710;9.202;2022-12-11T10:17:03;0.60;1.00
5136;DHT22;2586;48.710;9.202;2022-12-11T10:19:30;0.60;99.90
5136;DHT22;2586;48.710;9.202;2022-12-11T10:21:57;0.40;99.90
5136;DHT22;2586;48.710;9.202;2022-12-11T10:24:54;0.20;30.00
5136;DHT22;2586;48.710;9.202;2022-12-11T10:27:24;0.10;99.90
5136;DHT22;2586;48.710;9.202;2022-12-11T10:30:21;0.10;99.90
5136;DHT22;2586;48.710;9.202;2022-12-11T10:32:55;0.10;1.00
5136;DHT22;2586;48.710;9.202;2022-12-11T10:35:46;0.10;99.90
5136;DHT22;2586;48.710;9.202;2022-12-11T10:40:50;0.10;99.90
5136;DHT22;2586;48.710;9.202;2022-12-11T10:43:16;0.20;89.80
5136;DHT22;2586;48.710;9.202;2022-12-11T10:45:53;0.20;1.00
5136;DHT22;2586;48.710;9.202;2022-12-11T10:48:18;0.20;45.50
5136;DHT22;2586;48.710;9.202;2022-12-11T10:50:58;0.20;99.90
5136;DHT22;2586;48.710;9.202;2022-12-11T10:53:25;0.10;1.00
5136;DHT22;2586;48.710;9.202;2022-12-11T10:55:51;-0.10;91.30
5136;DHT22;2586;48.710;9.202;2022-12-11T10:58:20;0.10;99.90
5136;DHT22;2586;48.710;9.202;2022-12-11T11:01:01;0.20;99.90
5136;DHT22;2586;48.710;9.202;2022-12-11T11:03:27;0.30;1.00
5136;DHT22;2586;48.710;9.202;2022-12-11T11:06:04;0.90;99.90
5136;DHT22;2586;48.710;9.202;2022-12-11T11:08:48;1.40;99.90
5136;DHT22;2586;48.710;9.202;2022-12-11T11:11:26;0.90;1.00
5136;DHT22;2586;48.710;9.202;2022-12-11T11:14:06;0.50;1.00
5136;DHT22;2586;48.710;9.202;2022-12-11T11:16:36;0.40;1.00
5136;DHT22;2586;48.710;9.202;2022-12-11T11:19:02;0.20;99.90
5136;DHT22;2586;48.710;9.202;2022-12-11T11:21:28;0.10;99.90
5136;DHT22;2586;48.710;9.202;2022-12-11T11:23:56;0.20;99.90
5136;DHT22;2586;48.710;9.202;2022-12-11T11:26:22;0.30;99.90
5136;DHT22;2586;48.710;9.202;2022-12-11T11:28:52;0.40;99.90
5136;DHT22;2586;48.710;9.202;2022-12-11T11:31:18;0.30;99.90
5136;DHT22;2586;48.710;9.202;2022-12-11T11:33:57;0.20;60.10
5136;DHT22;2586;48.710;9.202;2022-12-11T11:36:29;0.10;99.90
5136;DHT22;2586;48.710;9.202;2022-12-11T11:39:18;0.10;99.90
5136;DHT22;2586;48.710;9.202;2022-12-11T11:44:50;0.30;99.90
5136;DHT22;2586;48.710;9.202;2022-12-11T11:47:27;0.20;99.90
5136;DHT22;2586;48.710;9.202;2022-12-11T11:50:07;0.30;99.90
5136;DHT22;2586;48.710;9.202;2022-12-11T11:52:42;0.30;13.20
5136;DHT22;2586;48.710;9.202;2022-12-11T11:55:26;0.30;7.60
5136;DHT22;2586;48.710;9.202;2022-12-11T11:57:59;0.20;99.90
5136;DHT22;2586;48.710;9.202;2022-12-11T12:00:29;0.20;1.00
5136;DHT22;2586;48.710;9.202;2022-12-11T12:03:15;0.10;99.90
5136;DHT22;2586;48.710;9.202;2022-12-11T12:05:53;0.10;1.00
5136;DHT22;2586;48.710;9.202;2022-12-11T12:11:27;0.30;1.00
5136;DHT22;2586;48.710;9.202;2022-12-11T12:27:28;0.90;99.90
5136;DHT22;2586;48.710;9.202;2022-12-11T12:30:08;1.00;99.90
5136;DHT22;2586;48.710;9.202;2022-12-11T12:35:33;2.00;99.90
5136;DHT22;2586;48.710;9.202;2022-12-11T12:41:01;1.50;26.40
5136;DHT22;2586;48.710;9.202;2022-12-11T12:44:16;1.70;28.40
5136;DHT22;2586;48.710;9.202;2022-12-11T12:46:53;1.80;99.90
5136;DHT22;2586;48.710;9.202;2022-12-11T12:49:34;1.90;99.90
5136;DHT22;2586;48.710;9.202;2022-12-11T12:52:02;2.00;1.00
5136;DHT22;2586;48.710;9.202;2022-12-11T12:54:31;2.00;1.00
5136;DHT22;2586;48.710;9.202;2022-12-11T12:56:58;1.70;1.00
5136;DHT22;2586;48.710;9.202;2022-12-11T12:59:27;1.60;1.00
5136;DHT22;2586;48.710;9.202;2022-12-11T13:01:56;1.70;99.90
5136;DHT22;2586;48.710;9.202;2022-12-11T13:04:42;1.60;47.30
5136;DHT22;2586;48.710;9.202;2022-12-11T13:09:42;1.60;99.90
5136;DHT22;2586;48.710;9.202;2022-12-11T13:12:14;1.60;99.90
5136;DHT22;2586;48.710;9.202;2022-12-11T13:14:41;1.30;99.90
5136;DHT22;2586;48.710;9.202;2022-12-11T13:17:23;1.10;99.90
5136;DHT22;2586;48.710;9.202;2022-12-11T13:20:04;1.00;99.90
5136;DHT22;2586;48.710;9.202;2022-12-11T13:22:33;0.80;99.90
5136;DHT22;2586;48.710;9.202;2022-12-11T13:25:01;0.60;1.00
5136;DHT22;2586;48.710;9.202;2022-12-11T13:35:17;0.70;1.00
5136;DHT22;2586;48.710;9.202;2022-12-11T13:37:44;0.60;31.10
5136;DHT22;2586;48.710;9.202;2022-12-11T13:40:23;0.80;94.50
5136;DHT22;2586;48.710;9.202;2022-12-11T13:43:01;0.90;1.00
5136;DHT22;2586;48.710;9.202;2022-12-11T13:45:38;0.80;1.00
5136;DHT22;2586;48.710;9.202;2022-12-11T13:48:32;0.70;1.00
5136;DHT22;2586;48.710;9.202;2022-12-11T13:51:00;0.70;1.00
5136;DHT22;2586;48.710;9.202;2022-12-11T13:53:26;0.70;1.00
5136;DHT22;2586;48.710;9.202;2022-12-11T13:58:22;0.50;99.90
5136;DHT22;2586;48.710;9.202;2022-12-11T14:01:02;0.60;1.00
5136;DHT22;2586;48.710;9.202;2022-12-11T14:03:30;0.40;1.00
5136;DHT22;2586;48.710;9.202;2022-12-11T14:05:56;0.30;1.00
5136;DHT22;2586;48.710;9.202;2022-12-11T14:08:24;0.30;1.00
5136;DHT22;2586;48.710;9.202;2022-12-11T14:10:53;0.30;7.60
5136;DHT22;2586;48.710;9.202;2022-12-11T14:13:22;0.30;99.90
5136;DHT22;2586;48.710;9.202;2022-12-11T14:15:49;0.30;99.90
5136;DHT22;2586;48.710;9.202;2022-12-11T14:18:20;0.40;99.90
5136;DHT22;2586;48.710;9.202;2022-12-11T14:20:56;0.30;99.90
5136;DHT22;2586;48.710;9.202;2022-12-11T14:23:25;0.10;99.90
5136;DHT22;2586;48.710;9.202;2022-12-11T14:25:56;0.00;1.00
5136;DHT22;2586;48.710;9.202;2022-12-11T14:28:24;0.00;99.90
5136;DHT22;2586;48.710;9.202;2022-12-11T14:30:56;-0.10;99.90
5136;DHT22;2586;48.710;9.202;2022-12-11T14:33:27;-0.10;99.90
5136;DHT22;2586;48.710;9.202;2022-12-11T14:35:54;-0.20;99.90
5136;DHT22;2586;48.710;9.202;2022-12-11T14:38:36;-0.20;99.90
5136;DHT22;2586;48.710;9.202;2022-12-11T14:41:28;-0.20;99.90
5136;DHT22;2586;48.710;9.202;2022-12-11T14:43:58;-0.20;99.90
5136;DHT22;2586;48.710;9.202;2022-12-11T14:46:36;-0.20;99.90
5136;DHT22;2586;48.710;9.202;2022-12-11T14:49:06;-0.20;99.90
5136;DHT22;2586;48.710;9.202;2022-12-11T14:51:38;-0.30;99.90
5136;DHT22;2586;48.710;9.202;2022-12-11T14:54:06;-0.30;99.90
5136;DHT22;2586;48.710;9.202;2022-12-11T14:56:36;-0.30;99.90
5136;DHT22;2586;48.710;9.202;2022-12-11T14:59:05;-0.20;1.00
5136;DHT22;2586;48.710;9.202;2022-12-11T15:01:35;-0.20;99.90
5136;DHT22;2586;48.710;9.202;2022-12-11T15:06:41;-0.40;1.00
5136;DHT22;2586;48.710;9.202;2022-12-11T15:11:49;-0.40;1.00
5136;DHT22;2586;48.710;9.202;2022-12-11T15:14:17;-0.50;1.00
5136;DHT22;2586;48.710;9.202;2022-12-11T15:16:44;-0.60;1.00
5136;DHT22;2586;48.710;9.202;2022-12-11T15:19:37;-0.60;20.20
5136;DHT22;2586;48.710;9.202;2022-12-11T15:22:05;-0.70;50.20
5136;DHT22;2586;48.710;9.202;2022-12-11T15:24:43;-0.80;1.00
5136;DHT22;2586;48.710;9.202;2022-12-11T15:29:55;-1.00;99.90
5136;DHT22;2586;48.710;9.202;2022-12-11T15:32:22;-1.00;1.00
5136;DHT22;2586;48.710;9.202;2022-12-11T15:34:58;-1.10;99.90
5136;DHT22;2586;48.710;9.202;2022-12-11T15:37:27;-1.10;1.00
5136;DHT22;2586;48.710;9.202;2022-12-11T15:39:55;-1.10;1.00
5136;DHT22;2586;48.710;9.202;2022-12-11T15:42:27;-1.20;1.00
5136;DHT22;2586;48.710;9.202;2022-12-11T15:44:54;-1.20;1.00
5136;DHT22;2586;48.710;9.202;2022-12-11T15:47:23;-1.20;1.00
5136;DHT22;2586;48.710;9.202;2022-12-11T15:49:50;-1.20;1.00
5136;DHT22;2586;48.710;9.202;2022-12-11T15:52:17;-1.30;99.90
5136;DHT22;2586;48.710;9.202;2022-12-11T15:54:43;-1.30;99.90
5136;DHT22;2586;48.710;9.202;2022-12-11T15:57:13;-1.30;99.90
5136;DHT22;2586;48.710;9.202;2022-12-11T15:59:39;-1.40;99.90
5136;DHT22;2586;48.710;9.202;2022-12-11T16:02:10;-1.40;99.90
5136;DHT22;2586;48.710;9.202;2022-12-11T16:04:37;-1.40;99.90
5136;DHT22;2586;48.710;9.202;2022-12-11T16:07:03;-1.50;99.90
5136;DHT22;2586;48.710;9.202;2022-12-11T16:09:28;-1.50;1.00
5136;DHT22;2586;48.710;9.202;2022-12-11T16:11:54;-1.50;1.00
5136;DHT22;2586;48.710;9.202;2022-12-11T16:14:20;-1.50;1.00
5136;DHT22;2586;48.710;9.202;2022-12-11T16:16:46;-1.60;1.00
5136;DHT22;2586;48.710;9.202;2022-12-11T16:19:11;-1.60;1.00
5136;DHT22;2586;48.710;9.202;2022-12-11T16:21:37;-1.60;1.00
5136;DHT22;2586;48.710;9.202;2022-12-11T16:24:02;-1.60;99.90
5136;DHT22;2586;48.710;9.202;2022-12-11T16:26:28;-1.60;99.90
5136;DHT22;2586;48.710;9.202;2022-12-11T16:28:53;-1.60;71.40
5136;DHT22;2586;48.710;9.202;2022-12-11T16:31:19;-1.50;79.10
5136;DHT22;2586;48.710;9.202;2022-12-11T16:33:45;-1.60;1.00
5136;DHT22;2586;48.710;9.202;2022-12-11T16:36:15;-1.60;1.00
5136;DHT22;2586;48.710;9.202;2022-12-11T16:38:46;-1.60;1.00
5136;DHT22;2586;48.710;9.202;2022-12-11T16:41:11;-1.70;1.00
5136;DHT22;2586;48.710;9.202;2022-12-11T16:43:37;-1.70;3.90
5136;DHT22;2586;48.710;9.202;2022-12-11T16:46:03;-1.70;97.90
5136;DHT22;2586;48.710;9.202;2022-12-11T16:48:28;-1.80;99.90
5136;DHT22;2586;48.710;9.202;2022-12-11T16:50:54;-1.80;99.90
5136;DHT22;2586;48.710;9.202;2022-12-11T16:53:20;-1.70;1.00
5136;DHT22;2586;48.710;9.202;2022-12-11T16:55:46;-1.70;1.00
5136;DHT22;2586;48.710;9.202;2022-12-11T16:58:11;-1.60;1.00
5136;DHT22;2586;48.710;9.202;2022-12-11T17:00:45;-1.60;1.00
5136;DHT22;2586;48.710;9.202;2022-12-11T17:03:11;-1.60;1.00
5136;DHT22;2586;48.710;9.202;2022-12-11T17:05:41;-1.50;1.00
5136;DHT22;2586;48.710;9.202;2022-12-11T17:08:07;-1.50;99.90
5136;DHT22;2586;48.710;9.202;2022-12-11T17:10:36;-1.50;1.00
5136;DHT22;2586;48.710;9.202;2022-12-11T17:13:02;-1.40;1.00
5136;DHT22;2586;48.710;9.202;2022-12-11T17:15:28;-1.50;1.00
5136;DHT22;2586;48.710;9.202;2022-12-11T17:17:54;-1.50;91.80
5136;DHT22;2586;48.710;9.202;2022-12-11T17:20:19;-1.60;99.90
5136;DHT22;2586;48.710;9.202;2022-12-11T17:22:45;-1.50;1.00
5136;DHT22;2586;48.710;9.202;2022-12-11T17:25:11;-1.50;1.00
5136;DHT22;2586;48.710;9.202;2022-12-11T17:27:36;-1.60;99.90
5136;DHT22;2586;48.710;9.202;2022-12-11T17:30:02;-1.50;99.90
5136;DHT22;2586;48.710;9.202;2022-12-11T17:32:29;-1.50;99.90
5136;DHT22;2586;48.710;9.202;2022-12-11T17:34:54;-1.50;99.90
5136;DHT22;2586;48.710;9.202;2022-12-11T17:37:20;-1.50;1.00
5136;DHT22;2586;48.710;9.202;2022-12-11T17:39:46;-1.50;1.00
5136;DHT22;2586;48.710;9.202;2022-12-11T17:42:12;-1.50;1.00